sensor_id;sensor_type;location;lat;lon;timestamp;pressure;altitude;pressure_sealevel;temperature;humidity
41222;BME280;26952;42.884;23.918;2022-09-27T00:02:13;94854.53;;;15.54;100.00
41222;BME280;26952;42.884;23.918;2022-09-27T00:04:38;94854.78;;;15.53;100.00
41222;BME280;26952;42.884;23.918;2022-09-27T00:07:04;94877.50;;;15.55;100.00
41222;BME280;26952;42.884;23.918;2022-09-27T00:09:30;94867.50;;;15.51;100.00
41222;BME280;26952;42.884;23.918;2022-09-27T00:11:55;94881.91;;;15.50;100.00
41222;BME280;26952;42.884;23.918;2022-09-27T00:14:21;94863.88;;;15.45;100.00
41222;BME280;26952;42.884;23.918;2022-09-27T00:16:46;94895.34;;;15.55;100.00
41222;BME280;26952;42.884;23.918;2022-09-27T00:19:14;94882.47;;;15.52;100.00
41222;BME280;26952;42.884;23.918;2022-09-27T00:21:41;94897.31;;;15.48;100.00
41222;BME280;26952;42.884;23.918;2022-09-27T00:24:12;94833.50;;;15.16;100.00
41222;BME280;26952;42.884;23.918;2022-09-27T00:26:38;94873.00;;;15.38;100.00
41222;BME280;26952;42.884;23.918;2022-09-27T00:29:03;94870.03;;;15.27;100.00
41222;BME280;26952;42.884;23.918;2022-09-27T00:31:30;94852.16;;;15.16;100.00
41222;BME280;26952;42.884;23.918;2022-09-27T00:33:58;94884.47;;;15.38;100.00
41222;BME280;26952;42.884;23.918;2022-09-27T00:36:24;94798.22;;;14.85;100.00
41222;BME280;26952;42.884;23.918;2022-09-27T00:38:50;94869.59;;;15.30;100.00
41222;BME280;26952;42.884;23.918;2022-09-27T00:41:25;94854.28;;;15.26;100.00
41222;BME280;26952;42.884;23.918;2022-09-27T00:43:59;94878.31;;;15.38;100.00
41222;BME280;26952;42.884;23.918;2022-09-27T00:51:42;94914.78;;;15.44;100.00
41222;BME280;26952;42.884;23.918;2022-09-27T00:54:12;94870.81;;;15.16;100.00
41222;BME280;26952;42.884;23.918;2022-09-27T00:56:39;94911.59;;;15.35;100.00
41222;BME280;26952;42.884;23.918;2022-09-27T00:59:10;94891.53;;;15.32;100.00
41222;BME280;26952;42.884;23.918;2022-09-27T01:01:36;94866.22;;;15.23;100.00
41222;BME280;26952;42.884;23.918;2022-09-27T01:04:06;94887.66;;;15.47;100.00
41222;BME280;26952;42.884;23.918;2022-09-27T01:06:32;94905.31;;;15.48;100.00
41222;BME280;26952;42.884;23.918;2022-09-27T01:08:58;94878.72;;;15.41;100.00
41222;BME280;26952;42.884;23.918;2022-09-27T01:11:36;94891.84;;;15.43;100.00
41222;BME280;26952;42.884;23.918;2022-09-27T01:33:52;94859.25;;;15.22;100.00
41222;BME280;26952;42.884;23.918;2022-09-27T01:39:25;94864.13;;;15.25;100.00
41222;BME280;26952;42.884;23.918;2022-09-27T01:47:11;94866.22;;;15.23;100.00
41222;BME280;26952;42.884;23.918;2022-09-27T01:49:51;94859.25;;;15.22;100.00
41222;BME280;26952;42.884;23.918;2022-09-27T01:52:30;94850.84;;;15.07;100.00
41222;BME280;26952;42.884;23.918;2022-09-27T01:54:59;94844.59;;;15.13;100.00
41222;BME280;26952;42.884;23.918;2022-09-27T01:57:32;94842.78;;;15.14;100.00
41222;BME280;26952;42.884;23.918;2022-09-27T02:00:04;94841.78;;;15.26;100.00
41222;BME280;26952;42.884;23.918;2022-09-27T02:02:35;94850.47;;;15.33;100.00
41222;BME280;26952;42.884;23.918;2022-09-27T02:05:04;94844.81;;;15.30;100.00
41222;BME280;26952;42.884;23.918;2022-09-27T02:07:52;94827.84;;;15.24;100.00
41222;BME280;26952;42.884;23.918;2022-09-27T02:10:24;94846.97;;;15.21;100.00
41222;BME280;26952;42.884;23.918;2022-09-27T02:13:13;94858.13;;;15.30;100.00
41222;BME280;26952;42.884;23.918;2022-09-27T02:22:00;94846.41;;;15.31;100.00
41222;BME280;26952;42.884;23.918;2022-09-27T02:24:57;94807.66;;;15.17;100.00
41222;BME280;26952;42.884;23.918;2022-09-27T02:27:27;94832.63;;;15.34;100.00
41222;BME280;26952;42.884;23.918;2022-09-27T02:30:07;94823.81;;;15.33;100.00
41222;BME280;26952;42.884;23.918;2022-09-27T02:32:35;94764.19;;;15.16;100.00
41222;BME280;26952;42.884;23.918;2022-09-27T02:35:04;94825.97;;;15.43;100.00
41222;BME280;26952;42.884;23.918;2022-09-27T02:37:32;94791.75;;;15.40;100.00
41222;BME280;26952;42.884;23.918;2022-09-27T02:39:57;94794.47;;;15.33;100.00
41222;BME280;26952;42.884;23.918;2022-09-27T02:42:24;94784.94;;;15.26;100.00
41222;BME280;26952;42.884;23.918;2022-09-27T02:44:50;94795.16;;;15.29;100.00
41222;BME280;26952;42.884;23.918;2022-09-27T02:47:38;94790.56;;;15.36;100.00
41222;BME280;26952;42.884;23.918;2022-09-27T02:50:17;94791.69;;;15.28;100.00
41222;BME280;26952;42.884;23.918;2022-09-27T02:53:07;94784.59;;;15.22;100.00
41222;BME280;26952;42.884;23.918;2022-09-27T03:01:11;94783.56;;;15.23;100.00
41222;BME280;26952;42.884;23.918;2022-09-27T03:03:59;94769.38;;;15.11;100.00
41222;BME280;26952;42.884;23.918;2022-09-27T03:06:29;94751.19;;;15.08;100.00
41222;BME280;26952;42.884;23.918;2022-09-27T03:08:56;94763.25;;;15.22;100.00
41222;BME280;26952;42.884;23.918;2022-09-27T03:11:21;94756.19;;;15.16;100.00
41222;BME280;26952;42.884;23.918;2022-09-27T03:13:47;94776.38;;;15.24;100.00
41222;BME280;26952;42.884;23.918;2022-09-27T03:16:12;94760.28;;;15.30;100.00
41222;BME280;26952;42.884;23.918;2022-09-27T03:18:40;94725.34;;;15.09;100.00
41222;BME280;26952;42.884;23.918;2022-09-27T03:21:05;94740.69;;;15.25;100.00
41222;BME280;26952;42.884;23.918;2022-09-27T03:23:31;94748.44;;;15.26;100.00
41222;BME280;26952;42.884;23.918;2022-09-27T03:25:56;94745.19;;;15.24;100.00
41222;BME280;26952;42.884;23.918;2022-09-27T03:28:22;94751.63;;;15.35;100.00
41222;BME280;26952;42.884;23.918;2022-09-27T03:30:48;94752.28;;;15.30;100.00
41222;BME280;26952;42.884;23.918;2022-09-27T03:33:13;94710.59;;;15.06;100.00
41222;BME280;26952;42.884;23.918;2022-09-27T03:35:40;94753.06;;;15.19;100.00
41222;BME280;26952;42.884;23.918;2022-09-27T03:38:06;94713.22;;;14.95;100.00
41222;BME280;26952;42.884;23.918;2022-09-27T03:40:32;94722.19;;;15.00;100.00
41222;BME280;26952;42.884;23.918;2022-09-27T03:42:57;94701.59;;;14.78;100.00
41222;BME280;26952;42.884;23.918;2022-09-27T03:45:23;94678.75;;;14.70;100.00
41222;BME280;26952;42.884;23.918;2022-09-27T03:47:48;94682.28;;;14.82;100.00
41222;BME280;26952;42.884;23.918;2022-09-27T03:50:14;94638.22;;;14.68;100.00
41222;BME280;26952;42.884;23.918;2022-09-27T03:52:41;94678.69;;;14.88;100.00
41222;BME280;26952;42.884;23.918;2022-09-27T03:55:08;94678.34;;;14.96;100.00
41222;BME280;26952;42.884;23.918;2022-09-27T03:57:34;94676.03;;;14.88;100.00
41222;BME280;26952;42.884;23.918;2022-09-27T03:59:59;94695.22;;;15.08;100.00
41222;BME280;26952;42.884;23.918;2022-09-27T04:02:26;94686.63;;;15.06;100.00
41222;BME280;26952;42.884;23.918;2022-09-27T04:04:51;94679.34;;;15.13;100.00
41222;BME280;26952;42.884;23.918;2022-09-27T04:07:17;94687.34;;;15.13;100.00
41222;BME280;26952;42.884;23.918;2022-09-27T04:09:43;94670.53;;;15.13;100.00
41222;BME280;26952;42.884;23.918;2022-09-27T04:12:11;94640.38;;;14.89;100.00
41222;BME280;26952;42.884;23.918;2022-09-27T04:14:36;94687.81;;;15.10;100.00
41222;BME280;26952;42.884;23.918;2022-09-27T04:17:02;94674.47;;;15.10;100.00
41222;BME280;26952;42.884;23.918;2022-09-27T04:19:28;94667.50;;;15.09;100.00
41222;BME280;26952;42.884;23.918;2022-09-27T04:21:53;94658.47;;;15.10;100.00
41222;BME280;26952;42.884;23.918;2022-09-27T04:24:19;94677.94;;;15.22;100.00
41222;BME280;26952;42.884;23.918;2022-09-27T04:26:44;94688.16;;;15.25;100.00
41222;BME280;26952;42.884;23.918;2022-09-27T04:29:10;94669.13;;;15.10;100.00
41222;BME280;26952;42.884;23.918;2022-09-27T04:31:36;94686.53;;;15.24;100.00
41222;BME280;26952;42.884;23.918;2022-09-27T04:34:03;94684.56;;;15.20;100.00
41222;BME280;26952;42.884;23.918;2022-09-27T04:36:29;94665.88;;;15.08;100.00
41222;BME280;26952;42.884;23.918;2022-09-27T04:38:57;94628.03;;;14.77;100.00
41222;BME280;26952;42.884;23.918;2022-09-27T04:41:24;94685.03;;;15.17;100.00
41222;BME280;26952;42.884;23.918;2022-09-27T04:43:53;94679.34;;;15.13;100.00
41222;BME280;26952;42.884;23.918;2022-09-27T04:46:18;94690.72;;;15.20;100.00
41222;BME280;26952;42.884;23.918;2022-09-27T04:48:46;94687.81;;;15.22;100.00
41222;BME280;26952;42.884;23.918;2022-09-27T04:51:12;94676.09;;;15.23;100.00
41222;BME280;26952;42.884;23.918;2022-09-27T04:53:40;94678.78;;;15.23;100.00
41222;BME280;26952;42.884;23.918;2022-09-27T04:56:06;94665.16;;;15.01;100.00
41222;BME280;26952;42.884;23.918;2022-09-27T04:58:32;94708.72;;;15.37;100.00
41222;BME280;26952;42.884;23.918;2022-09-27T05:00:59;94696.75;;;15.27;100.00
41222;BME280;26952;42.884;23.918;2022-09-27T05:03:26;94686.06;;;15.27;100.00
41222;BME280;26952;42.884;23.918;2022-09-27T05:05:53;94694.78;;;15.35;100.00
41222;BME280;26952;42.884;23.918;2022-09-27T05:08:18;94706.03;;;15.37;100.00
41222;BME280;26952;42.884;23.918;2022-09-27T05:10:45;94713.75;;;15.45;100.00
41222;BME280;26952;42.884;23.918;2022-09-27T05:13:11;94724.63;;;15.55;100.00
41222;BME280;26952;42.884;23.918;2022-09-27T05:15:37;94702.25;;;15.56;100.00
41222;BME280;26952;42.884;23.918;2022-09-27T05:18:04;94704.00;;;15.62;100.00
41222;BME280;26952;42.884;23.918;2022-09-27T05:20:29;94707.25;;;15.64;100.00
41222;BME280;26952;42.884;23.918;2022-09-27T05:22:55;94710.28;;;15.79;100.00
41222;BME280;26952;42.884;23.918;2022-09-27T05:25:21;94712.59;;;15.87;100.00
41222;BME280;26952;42.884;23.918;2022-09-27T05:27:46;94708.06;;;15.87;100.00
41222;BME280;26952;42.884;23.918;2022-09-27T05:30:12;94696.91;;;15.90;100.00
41222;BME280;26952;42.884;23.918;2022-09-27T05:32:46;94683.38;;;15.69;100.00
41222;BME280;26952;42.884;23.918;2022-09-27T05:35:16;94704.13;;;15.78;100.00
41222;BME280;26952;42.884;23.918;2022-09-27T05:37:55;94704.13;;;15.78;100.00
41222;BME280;26952;42.884;23.918;2022-09-27T05:40:22;94701.69;;;15.77;100.00
41222;BME280;26952;42.884;23.918;2022-09-27T05:42:50;94691.69;;;15.84;100.00
41222;BME280;26952;42.884;23.918;2022-09-27T05:45:16;94670.50;;;15.77;100.00
41222;BME280;26952;42.884;23.918;2022-09-27T05:47:41;94685.31;;;15.96;100.00
41222;BME280;26952;42.884;23.918;2022-09-27T05:50:07;94671.25;;;16.01;100.00
41222;BME280;26952;42.884;23.918;2022-09-27T05:52:34;94673.44;;;16.15;100.00
41222;BME280;26952;42.884;23.918;2022-09-27T05:54:59;94680.13;;;16.29;100.00
41222;BME280;26952;42.884;23.918;2022-09-27T05:57:24;94669.75;;;16.44;100.00
41222;BME280;26952;42.884;23.918;2022-09-27T05:59:50;94670.34;;;16.58;100.00
41222;BME280;26952;42.884;23.918;2022-09-27T06:02:15;94665.66;;;16.65;100.00
41222;BME280;26952;42.884;23.918;2022-09-27T06:04:42;94668.75;;;16.74;100.00
41222;BME280;26952;42.884;23.918;2022-09-27T06:07:08;94677.72;;;16.68;100.00
41222;BME280;26952;42.884;23.918;2022-09-27T06:09:34;94674.13;;;16.62;100.00
41222;BME280;26952;42.884;23.918;2022-09-27T06:11:59;94648.75;;;16.48;100.00
41222;BME280;26952;42.884;23.918;2022-09-27T06:14:24;94668.22;;;16.60;100.00
41222;BME280;26952;42.884;23.918;2022-09-27T06:16:51;94675.72;;;16.75;100.00
41222;BME280;26952;42.884;23.918;2022-09-27T06:19:18;94652.88;;;16.67;100.00
41222;BME280;26952;42.884;23.918;2022-09-27T06:21:43;94643.44;;;16.76;100.00
41222;BME280;26952;42.884;23.918;2022-09-27T06:24:09;94635.13;;;16.61;100.00
41222;BME280;26952;42.884;23.918;2022-09-27T06:26:34;94653.94;;;16.66;100.00
41222;BME280;26952;42.884;23.918;2022-09-27T06:29:00;94631.44;;;16.50;100.00
41222;BME280;26952;42.884;23.918;2022-09-27T06:31:25;94658.50;;;16.54;100.00
41222;BME280;26952;42.884;23.918;2022-09-27T06:33:51;94669.75;;;16.56;100.00
41222;BME280;26952;42.884;23.918;2022-09-27T06:36:16;94667.66;;;16.58;100.00
41222;BME280;26952;42.884;23.918;2022-09-27T06:38:42;94655.19;;;16.63;100.00
41222;BME280;26952;42.884;23.918;2022-09-27T06:41:08;94664.22;;;16.74;100.00
41222;BME280;26952;42.884;23.918;2022-09-27T06:43:34;94648.44;;;16.89;100.00
41222;BME280;26952;42.884;23.918;2022-09-27T06:46:00;94660.94;;;16.84;100.00
41222;BME280;26952;42.884;23.918;2022-09-27T06:48:30;94651.22;;;16.94;100.00
41222;BME280;26952;42.884;23.918;2022-09-27T06:50:56;94644.75;;;16.90;100.00
41222;BME280;26952;42.884;23.918;2022-09-27T06:53:22;94652.78;;;17.07;100.00
41222;BME280;26952;42.884;23.918;2022-09-27T06:55:47;94641.19;;;17.01;100.00
41222;BME280;26952;42.884;23.918;2022-09-27T06:58:13;94656.44;;;17.17;100.00
41222;BME280;26952;42.884;23.918;2022-09-27T07:00:57;94634.63;;;17.25;100.00
41222;BME280;26952;42.884;23.918;2022-09-27T07:03:23;94621.66;;;17.34;100.00
41222;BME280;26952;42.884;23.918;2022-09-27T07:05:54;94633.44;;;17.49;100.00
41222;BME280;26952;42.884;23.918;2022-09-27T07:08:21;94643.31;;;17.65;100.00
41222;BME280;26952;42.884;23.918;2022-09-27T07:10:47;94658.38;;;17.88;100.00
41222;BME280;26952;42.884;23.918;2022-09-27T07:13:12;94645.34;;;17.96;100.00
41222;BME280;26952;42.884;23.918;2022-09-27T07:15:40;94615.47;;;18.05;100.00
41222;BME280;26952;42.884;23.918;2022-09-27T07:18:06;94621.78;;;18.15;100.00
41222;BME280;26952;42.884;23.918;2022-09-27T07:20:34;94601.56;;;18.08;100.00
41222;BME280;26952;42.884;23.918;2022-09-27T07:23:07;94614.59;;;18.21;100.00
41222;BME280;26952;42.884;23.918;2022-09-27T07:25:33;94618.97;;;18.27;100.00
41222;BME280;26952;42.884;23.918;2022-09-27T07:28:04;94627.56;;;18.29;100.00
41222;BME280;26952;42.884;23.918;2022-09-27T07:30:30;94648.50;;;18.32;100.00
41222;BME280;26952;42.884;23.918;2022-09-27T07:32:58;94627.69;;;17.95;100.00
41222;BME280;26952;42.884;23.918;2022-09-27T07:35:23;94652.00;;;18.11;100.00
41222;BME280;26952;42.884;23.918;2022-09-27T07:37:49;94644.59;;;18.01;100.00
41222;BME280;26952;42.884;23.918;2022-09-27T07:40:14;94644.66;;;17.84;100.00
41222;BME280;26952;42.884;23.918;2022-09-27T07:42:40;94630.25;;;17.52;100.00
41222;BME280;26952;42.884;23.918;2022-09-27T07:45:06;94642.75;;;17.63;100.00
41222;BME280;26952;42.884;23.918;2022-09-27T07:47:32;94673.78;;;17.81;100.00
41222;BME280;26952;42.884;23.918;2022-09-27T07:49:57;94676.72;;;17.79;100.00
41222;BME280;26952;42.884;23.918;2022-09-27T07:52:23;94661.69;;;17.78;100.00
41222;BME280;26952;42.884;23.918;2022-09-27T07:54:48;94666.63;;;17.86;100.00
41222;BME280;26952;42.884;23.918;2022-09-27T07:57:14;94661.91;;;17.93;100.00
41222;BME280;26952;42.884;23.918;2022-09-27T07:59:40;94703.91;;;18.10;100.00
41222;BME280;26952;42.884;23.918;2022-09-27T08:02:12;94698.97;;;18.18;100.00
41222;BME280;26952;42.884;23.918;2022-09-27T08:04:39;94672.56;;;18.27;100.00
41222;BME280;26952;42.884;23.918;2022-09-27T08:07:05;94675.63;;;18.57;100.00
41222;BME280;26952;42.884;23.918;2022-09-27T08:09:30;94675.94;;;18.82;100.00
41222;BME280;26952;42.884;23.918;2022-09-27T08:11:56;94671.47;;;18.92;100.00
41222;BME280;26952;42.884;23.918;2022-09-27T08:14:22;94665.09;;;18.98;100.00
41222;BME280;26952;42.884;23.918;2022-09-27T08:16:48;94679.47;;;19.14;100.00
41222;BME280;26952;42.884;23.918;2022-09-27T08:19:15;94676.47;;;19.32;100.00
41222;BME280;26952;42.884;23.918;2022-09-27T08:21:41;94670.44;;;19.25;100.00
41222;BME280;26952;42.884;23.918;2022-09-27T08:24:06;94684.84;;;19.41;100.00
41222;BME280;26952;42.884;23.918;2022-09-27T08:26:32;94678.72;;;19.45;100.00
41222;BME280;26952;42.884;23.918;2022-09-27T08:28:57;94675.81;;;19.52;100.00
41222;BME280;26952;42.884;23.918;2022-09-27T08:31:23;94663.56;;;19.34;100.00
41222;BME280;26952;42.884;23.918;2022-09-27T08:33:50;94622.38;;;19.18;100.00
41222;BME280;26952;42.884;23.918;2022-09-27T08:36:15;94611.59;;;19.13;100.00
41222;BME280;26952;42.884;23.918;2022-09-27T08:38:42;94629.00;;;19.11;100.00
41222;BME280;26952;42.884;23.918;2022-09-27T08:41:21;94613.22;;;18.88;100.00
41222;BME280;26952;42.884;23.918;2022-09-27T08:47:24;94640.41;;;18.96;100.00
41222;BME280;26952;42.884;23.918;2022-09-27T08:50:02;94645.06;;;18.79;100.00
41222;BME280;26952;42.884;23.918;2022-09-27T08:52:31;94646.38;;;18.77;100.00
41222;BME280;26952;42.884;23.918;2022-09-27T08:55:03;94638.88;;;18.79;100.00
41222;BME280;26952;42.884;23.918;2022-09-27T08:57:30;94654.88;;;18.95;100.00
41222;BME280;26952;42.884;23.918;2022-09-27T09:00:05;94637.63;;;19.18;100.00
41222;BME280;26952;42.884;23.918;2022-09-27T09:02:33;94624.47;;;19.43;100.00
41222;BME280;26952;42.884;23.918;2022-09-27T09:05:02;94615.56;;;19.74;100.00
41222;BME280;26952;42.884;23.918;2022-09-27T09:13:20;94626.31;;;20.88;100.00
41222;BME280;26952;42.884;23.918;2022-09-27T09:34:50;94590.78;;;22.01;100.00
41222;BME280;26952;42.884;23.918;2022-09-27T09:42:37;94627.41;;;22.12;100.00
41222;BME280;26952;42.884;23.918;2022-09-27T09:45:18;94625.72;;;22.31;100.00
41222;BME280;26952;42.884;23.918;2022-09-27T09:47:47;94625.69;;;22.41;100.00
41222;BME280;26952;42.884;23.918;2022-09-27T09:50:16;94621.84;;;22.62;100.00
41222;BME280;26952;42.884;23.918;2022-09-27T09:53:10;94625.38;;;23.11;100.00
41222;BME280;26952;42.884;23.918;2022-09-27T09:55:39;94604.25;;;23.13;90.42
41222;BME280;26952;42.884;23.918;2022-09-27T10:00:55;94604.06;;;22.51;86.75
41222;BME280;26952;42.884;23.918;2022-09-27T10:03:23;94588.53;;;22.28;96.77
41222;BME280;26952;42.884;23.918;2022-09-27T10:05:49;94603.69;;;22.73;94.60
41222;BME280;26952;42.884;23.918;2022-09-27T10:08:19;94606.81;;;22.36;92.97
41222;BME280;26952;42.884;23.918;2022-09-27T10:10:46;94609.09;;;22.04;97.03
41222;BME280;26952;42.884;23.918;2022-09-27T10:13:16;94615.88;;;22.70;100.00
41222;BME280;26952;42.884;23.918;2022-09-27T10:15:41;94611.03;;;22.67;96.09
41222;BME280;26952;42.884;23.918;2022-09-27T10:18:12;94607.09;;;22.40;96.14
41222;BME280;26952;42.884;23.918;2022-09-27T10:20:46;94618.28;;;21.93;98.55
41222;BME280;26952;42.884;23.918;2022-09-27T10:23:17;94602.13;;;21.83;100.00
41222;BME280;26952;42.884;23.918;2022-09-27T10:25:51;94591.81;;;22.15;100.00
41222;BME280;26952;42.884;23.918;2022-09-27T10:28:36;94598.72;;;22.36;99.55
41222;BME280;26952;42.884;23.918;2022-09-27T10:31:07;94577.69;;;22.38;95.18
41222;BME280;26952;42.884;23.918;2022-09-27T10:33:36;94594.78;;;22.82;96.52
41222;BME280;26952;42.884;23.918;2022-09-27T10:36:21;94596.28;;;22.55;100.00
41222;BME280;26952;42.884;23.918;2022-09-27T10:38:52;94596.00;;;22.46;100.00
41222;BME280;26952;42.884;23.918;2022-09-27T10:43:50;94584.81;;;22.14;100.00
41222;BME280;26952;42.884;23.918;2022-09-27T10:46:32;94578.38;;;21.95;100.00
41222;BME280;26952;42.884;23.918;2022-09-27T10:49:28;94578.97;;;21.42;100.00
41222;BME280;26952;42.884;23.918;2022-09-27T10:52:06;94563.88;;;21.61;100.00
41222;BME280;26952;42.884;23.918;2022-09-27T10:54:37;94585.94;;;21.98;98.10
41222;BME280;26952;42.884;23.918;2022-09-27T10:59:39;94590.03;;;22.49;99.98
41222;BME280;26952;42.884;23.918;2022-09-27T11:02:19;94582.53;;;22.41;98.08
41222;BME280;26952;42.884;23.918;2022-09-27T11:07:50;94595.13;;;21.62;100.00
41222;BME280;26952;42.884;23.918;2022-09-27T11:18:33;94582.50;;;22.51;100.00
41222;BME280;26952;42.884;23.918;2022-09-27T11:37:59;94564.59;;;24.05;84.11
41222;BME280;26952;42.884;23.918;2022-09-27T11:45:57;94582.88;;;24.60;82.73
41222;BME280;26952;42.884;23.918;2022-09-27T11:48:45;94574.53;;;24.80;76.80
41222;BME280;26952;42.884;23.918;2022-09-27T12:09:54;94540.91;;;23.92;78.06
41222;BME280;26952;42.884;23.918;2022-09-27T12:12:24;94539.09;;;24.11;77.62
41222;BME280;26952;42.884;23.918;2022-09-27T12:15:00;94547.09;;;24.21;78.13
41222;BME280;26952;42.884;23.918;2022-09-27T12:17:30;94546.72;;;24.51;88.16
41222;BME280;26952;42.884;23.918;2022-09-27T12:20:00;94531.91;;;24.86;81.81
41222;BME280;26952;42.884;23.918;2022-09-27T12:22:33;94519.97;;;25.05;76.05
41222;BME280;26952;42.884;23.918;2022-09-27T12:25:00;94517.25;;;25.05;77.29
41222;BME280;26952;42.884;23.918;2022-09-27T12:27:42;94516.91;;;24.75;78.07
41222;BME280;26952;42.884;23.918;2022-09-27T12:30:11;94518.31;;;24.72;81.18
41222;BME280;26952;42.884;23.918;2022-09-27T12:33:12;94512.22;;;24.43;80.52
41222;BME280;26952;42.884;23.918;2022-09-27T12:35:50;94516.75;;;24.24;82.80
41222;BME280;26952;42.884;23.918;2022-09-27T12:38:34;94496.94;;;24.28;82.21
41222;BME280;26952;42.884;23.918;2022-09-27T12:41:04;94485.28;;;24.33;81.80
41222;BME280;26952;42.884;23.918;2022-09-27T12:43:31;94445.78;;;23.90;79.01
41222;BME280;26952;42.884;23.918;2022-09-27T12:51:22;94466.81;;;23.93;78.91
41222;BME280;26952;42.884;23.918;2022-09-27T13:05:06;94446.47;;;24.42;73.80
41222;BME280;26952;42.884;23.918;2022-09-27T13:07:45;94455.47;;;24.38;74.08
41222;BME280;26952;42.884;23.918;2022-09-27T13:12:51;94430.66;;;25.00;73.41
41222;BME280;26952;42.884;23.918;2022-09-27T13:15:26;94431.94;;;25.21;71.17
41222;BME280;26952;42.884;23.918;2022-09-27T13:17:58;94438.53;;;25.15;75.16
41222;BME280;26952;42.884;23.918;2022-09-27T13:20:39;94430.84;;;24.90;71.16
41222;BME280;26952;42.884;23.918;2022-09-27T13:26:21;94432.63;;;24.07;77.59
41222;BME280;26952;42.884;23.918;2022-09-27T13:42:47;94410.41;;;24.10;96.90
41222;BME280;26952;42.884;23.918;2022-09-27T13:47:46;94425.63;;;24.43;94.99
41222;BME280;26952;42.884;23.918;2022-09-27T13:50:56;94528.56;;;24.33;87.92
41222;BME280;26952;42.884;23.918;2022-09-27T13:53:33;94532.72;;;22.77;81.10
41222;BME280;26952;42.884;23.918;2022-09-27T13:55:59;94509.22;;;21.55;88.28
41222;BME280;26952;42.884;23.918;2022-09-27T14:04:17;94522.44;;;20.87;85.26
41222;BME280;26952;42.884;23.918;2022-09-27T14:06:46;94532.69;;;21.05;83.30
41222;BME280;26952;42.884;23.918;2022-09-27T14:11:52;94517.09;;;21.12;85.66
41222;BME280;26952;42.884;23.918;2022-09-27T14:14:22;94485.28;;;21.29;88.60
41222;BME280;26952;42.884;23.918;2022-09-27T14:16:49;94469.16;;;21.29;84.25
41222;BME280;26952;42.884;23.918;2022-09-27T14:19:21;94479.34;;;21.47;80.17
41222;BME280;26952;42.884;23.918;2022-09-27T14:21:47;94457.78;;;21.52;77.89
41222;BME280;26952;42.884;23.918;2022-09-27T14:24:28;94467.69;;;21.76;75.93
41222;BME280;26952;42.884;23.918;2022-09-27T14:27:23;94471.91;;;21.04;83.24
41222;BME280;26952;42.884;23.918;2022-09-27T14:29:57;94485.78;;;20.30;87.87
41222;BME280;26952;42.884;23.918;2022-09-27T14:32:27;94520.72;;;20.25;89.51
41222;BME280;26952;42.884;23.918;2022-09-27T14:37:28;94548.59;;;20.09;94.15
41222;BME280;26952;42.884;23.918;2022-09-27T14:40:04;94549.69;;;20.13;97.61
41222;BME280;26952;42.884;23.918;2022-09-27T14:42:33;94557.72;;;20.08;100.00
41222;BME280;26952;42.884;23.918;2022-09-27T14:47:43;94548.59;;;20.09;100.00
41222;BME280;26952;42.884;23.918;2022-09-27T14:50:29;94547.31;;;20.22;100.00
41222;BME280;26952;42.884;23.918;2022-09-27T14:52:56;94541.16;;;20.21;100.00
41222;BME280;26952;42.884;23.918;2022-09-27T14:55:26;94558.75;;;19.92;100.00
41222;BME280;26952;42.884;23.918;2022-09-27T14:57:55;94509.81;;;19.85;100.00
41222;BME280;26952;42.884;23.918;2022-09-27T15:00:27;94509.16;;;19.58;100.00
41222;BME280;26952;42.884;23.918;2022-09-27T15:02:58;94481.53;;;19.26;100.00
41222;BME280;26952;42.884;23.918;2022-09-27T15:05:26;94495.59;;;19.38;100.00
41222;BME280;26952;42.884;23.918;2022-09-27T15:07:53;94497.47;;;19.01;100.00
41222;BME280;26952;42.884;23.918;2022-09-27T15:10:24;94517.38;;;19.10;100.00
41222;BME280;26952;42.884;23.918;2022-09-27T15:12:54;94496.84;;;18.89;100.00
41222;BME280;26952;42.884;23.918;2022-09-27T15:15:24;94440.84;;;18.56;100.00
41222;BME280;26952;42.884;23.918;2022-09-27T15:17:51;94498.03;;;19.03;100.00
41222;BME280;26952;42.884;23.918;2022-09-27T15:20:24;94506.56;;;19.00;100.00
41222;BME280;26952;42.884;23.918;2022-09-27T15:22:53;94518.44;;;19.04;100.00
41222;BME280;26952;42.884;23.918;2022-09-27T15:27:49;94510.25;;;18.89;100.00
41222;BME280;26952;42.884;23.918;2022-09-27T15:30:18;94526.78;;;18.76;100.00
41222;BME280;26952;42.884;23.918;2022-09-27T15:32:54;94506.31;;;18.65;100.00
41222;BME280;26952;42.884;23.918;2022-09-27T15:35:38;94508.25;;;18.74;100.00
41222;BME280;26952;42.884;23.918;2022-09-27T15:38:11;94532.66;;;18.73;100.00
41222;BME280;26952;42.884;23.918;2022-09-27T15:43:37;94527.69;;;18.60;100.00
41222;BME280;26952;42.884;23.918;2022-09-27T15:46:26;94544.94;;;18.21;100.00
41222;BME280;26952;42.884;23.918;2022-09-27T15:49:22;94535.75;;;18.12;100.00
41222;BME280;26952;42.884;23.918;2022-09-27T15:51:52;94522.25;;;18.02;100.00
41222;BME280;26952;42.884;23.918;2022-09-27T15:54:20;94540.84;;;18.13;100.00
41222;BME280;26952;42.884;23.918;2022-09-27T15:56:50;94538.69;;;18.10;100.00
41222;BME280;26952;42.884;23.918;2022-09-27T15:59:25;94563.63;;;18.16;100.00
41222;BME280;26952;42.884;23.918;2022-09-27T16:01:55;94553.47;;;17.91;100.00
41222;BME280;26952;42.884;23.918;2022-09-27T16:04:21;94570.38;;;17.96;100.00
41222;BME280;26952;42.884;23.918;2022-09-27T16:06:46;94547.59;;;17.72;100.00
41222;BME280;26952;42.884;23.918;2022-09-27T16:09:17;94555.69;;;17.77;100.00
41222;BME280;26952;42.884;23.918;2022-09-27T16:11:46;94533.94;;;17.52;100.00
41222;BME280;26952;42.884;23.918;2022-09-27T16:14:12;94541.09;;;17.30;100.00